createdAt,value
2019-05-16T00:02:28.342Z,11.68
2019-05-16T00:05:30.242Z,11.68
2019-05-16T00:08:32.170Z,11.73
2019-05-16T00:11:34.155Z,11.80
2019-05-16T00:14:36.077Z,11.78
2019-05-16T00:17:38.759Z,11.81
2019-05-16T00:20:41.044Z,11.77
2019-05-16T00:23:43.155Z,11.75
2019-05-16T00:26:45.268Z,11.74
2019-05-16T00:29:48.748Z,11.66
2019-05-16T00:32:50.832Z,11.63
2019-05-16T00:36:02.604Z,11.65
2019-05-16T00:38:57.877Z,11.62
2019-05-16T00:42:00.058Z,11.57
2019-05-16T00:45:02.505Z,11.56
2019-05-16T00:48:04.389Z,11.51
2019-05-16T00:51:07.864Z,11.47
2019-05-16T00:54:10.101Z,11.52
2019-05-16T00:57:12.433Z,11.56
2019-05-16T01:00:14.813Z,11.57
2019-05-16T01:03:16.955Z,11.60
2019-05-16T01:06:22.809Z,11.61
2019-05-16T01:09:22.938Z,11.59
2019-05-16T01:12:24.833Z,11.62
2019-05-16T01:15:28.762Z,11.60
2019-05-16T01:18:30.581Z,11.61
2019-05-16T01:21:32.518Z,11.58
2019-05-16T01:24:34.385Z,11.60
2019-05-16T01:27:38.355Z,11.54
2019-05-16T01:30:40.151Z,11.55
2019-05-16T01:33:42.203Z,11.57
2019-05-16T01:36:44.101Z,11.54
2019-05-16T01:39:48.262Z,11.49
2019-05-16T01:42:49.842Z,11.56
2019-05-16T01:45:51.768Z,11.47
2019-05-16T01:48:53.670Z,11.45
2019-05-16T01:51:57.738Z,11.52
2019-05-16T01:54:59.467Z,11.54
2019-05-16T01:58:01.441Z,11.54
2019-05-16T02:01:12.336Z,11.47
2019-05-16T02:04:11.785Z,11.51
2019-05-16T02:07:12.369Z,11.53
2019-05-16T02:10:14.627Z,11.51
2019-05-16T02:13:18.023Z,11.51
2019-05-16T02:16:20.239Z,11.49
2019-05-16T02:19:22.239Z,11.49
2019-05-16T02:22:24.138Z,11.53
2019-05-16T02:25:27.698Z,11.52
2019-05-16T02:28:36.679Z,11.50
2019-05-16T02:31:33.623Z,11.46
2019-05-16T02:34:35.525Z,11.47
2019-05-16T02:37:37.531Z,11.46
2019-05-16T02:40:41.747Z,11.47
2019-05-16T02:43:43.375Z,11.47
2019-05-16T02:46:45.360Z,11.45
2019-05-16T02:49:50.307Z,11.51
2019-05-16T02:52:51.925Z,11.56
2019-05-16T02:55:54.262Z,11.49
2019-05-16T02:58:56.258Z,11.42
2019-05-16T03:02:00.857Z,11.40
2019-05-16T03:05:02.951Z,11.42
2019-05-16T03:08:06.431Z,11.45
2019-05-16T03:11:11.631Z,11.47
2019-05-16T03:14:13.419Z,11.52
2019-05-16T03:17:21.179Z,11.54
2019-05-16T03:20:21.540Z,11.53
2019-05-16T03:23:23.520Z,11.55
2019-05-16T03:26:25.465Z,11.55
2019-05-16T03:29:27.446Z,11.53
2019-05-16T03:32:34.011Z,11.48
2019-05-16T03:35:34.610Z,11.56
2019-05-16T03:38:37.272Z,11.56
2019-05-16T03:41:41.442Z,11.61
2019-05-16T03:44:43.239Z,11.66
2019-05-16T03:47:45.146Z,11.65
2019-05-16T03:50:50.445Z,11.61
2019-05-16T03:53:51.041Z,11.62
2019-05-16T03:56:53.142Z,11.61
2019-05-16T03:59:56.060Z,11.64
2019-05-16T04:03:01.062Z,11.70
2019-05-16T04:06:01.803Z,11.81
2019-05-16T04:09:06.488Z,11.91
2019-05-16T04:12:10.778Z,11.99
2019-05-16T04:15:12.553Z,11.98
2019-05-16T04:18:14.509Z,11.99
2019-05-16T04:21:17.869Z,11.91
2019-05-16T04:24:21.622Z,11.86
2019-05-16T04:27:24.031Z,11.81
2019-05-16T04:30:25.996Z,11.78
2019-05-16T04:33:30.622Z,11.80
2019-05-16T04:36:32.671Z,11.82
2019-05-16T04:39:35.255Z,11.83
2019-05-16T04:42:37.180Z,11.86
2019-05-16T04:45:41.437Z,11.90
2019-05-16T04:48:43.105Z,11.85
2019-05-16T04:51:45.094Z,11.79
2019-05-16T04:54:46.975Z,11.60
2019-05-16T04:57:51.105Z,11.49
2019-05-16T05:00:52.899Z,11.50
2019-05-16T05:04:06.661Z,11.48
2019-05-16T05:07:00.493Z,11.51
2019-05-16T05:10:04.904Z,11.50
2019-05-16T05:13:06.891Z,11.49
2019-05-16T05:16:10.658Z,11.57
2019-05-16T05:19:12.783Z,11.69
2019-05-16T05:22:14.701Z,11.80
2019-05-16T05:25:16.716Z,11.93
2019-05-16T05:28:20.965Z,11.96
2019-05-16T05:31:24.874Z,11.85
2019-05-16T05:34:26.881Z,11.78
2019-05-16T05:37:29.791Z,11.74
2019-05-16T05:40:32.192Z,11.75
2019-05-16T05:43:34.108Z,11.70
2019-05-16T05:46:36.109Z,11.81
2019-05-16T05:49:40.352Z,11.90
2019-05-16T05:52:41.950Z,12.06
2019-05-16T05:55:43.918Z,12.06
2019-05-16T05:58:45.904Z,12.11
2019-05-16T06:01:51.343Z,12.10
2019-05-16T06:04:51.700Z,12.24
2019-05-16T06:07:53.753Z,12.32
2019-05-16T06:10:55.828Z,12.44
2019-05-16T06:13:57.742Z,12.53
2019-05-16T06:17:00.400Z,12.57
2019-05-16T06:20:04.565Z,12.50
2019-05-16T06:23:06.557Z,12.43
2019-05-16T06:26:11.858Z,12.50
2019-05-16T06:29:12.604Z,12.45
2019-05-16T06:32:14.546Z,12.60
2019-05-16T06:35:16.604Z,12.86
2019-05-16T06:38:21.086Z,13.11
2019-05-16T06:41:22.408Z,13.35
2019-05-16T06:44:24.808Z,13.46
2019-05-16T06:47:26.783Z,13.48
2019-05-16T06:50:29.786Z,13.59
2019-05-16T06:53:31.968Z,13.77
2019-05-16T06:56:34.022Z,13.80
2019-05-16T06:59:35.977Z,13.78
2019-05-16T07:02:40.576Z,13.71
2019-05-16T07:05:41.823Z,13.80
2019-05-16T07:08:43.938Z,14.01
2019-05-16T07:11:45.930Z,14.16
2019-05-16T07:14:50.337Z,14.25
2019-05-16T07:17:51.704Z,14.24
2019-05-16T07:20:53.755Z,14.32
2019-05-16T07:23:55.787Z,14.28
2019-05-16T07:27:00.203Z,14.23
2019-05-16T07:30:02.178Z,14.21
2019-05-16T07:33:04.400Z,14.23
2019-05-16T07:36:06.423Z,14.29
2019-05-16T07:39:10.772Z,14.37
2019-05-16T07:42:12.665Z,14.40
2019-05-16T07:45:14.991Z,14.55
2019-05-16T07:48:16.998Z,14.77
2019-05-16T07:51:20.526Z,14.84
2019-05-16T07:54:22.834Z,14.93
2019-05-16T07:57:24.914Z,15.14
2019-05-16T08:00:43.428Z,15.41
2019-05-16T08:03:30.708Z,15.68
2019-05-16T08:06:34.144Z,16.14
2019-05-16T08:09:36.472Z,16.37
2019-05-16T08:12:40.659Z,16.45
2019-05-16T08:15:42.379Z,16.53
2019-05-16T08:18:45.179Z,16.49
2019-05-16T08:21:50.383Z,16.43
2019-05-16T08:24:51.633Z,16.51
2019-05-16T08:27:53.575Z,16.72
2019-05-16T08:30:55.503Z,16.73
2019-05-16T08:34:00.733Z,16.69
2019-05-16T08:37:01.373Z,16.57
2019-05-16T08:40:05.877Z,16.67
2019-05-16T08:43:07.791Z,16.68
2019-05-16T08:46:12.342Z,16.59
2019-05-16T08:49:13.658Z,16.53
2019-05-16T08:52:15.692Z,16.47
2019-05-16T08:55:21.519Z,16.43
2019-05-16T08:58:22.938Z,16.58
2019-05-16T09:01:25.186Z,16.82
2019-05-16T09:04:27.122Z,17.13
2019-05-16T09:07:31.720Z,17.23
2019-05-16T09:10:59.948Z,17.27
2019-05-16T09:13:37.083Z,17.52
2019-05-16T09:16:39.442Z,18.02
2019-05-16T09:19:41.330Z,18.29
2019-05-16T09:22:44.282Z,18.20
2019-05-16T09:25:48.885Z,18.18
2019-05-16T09:28:50.195Z,18.24
2019-05-16T09:32:07.815Z,18.25
2019-05-16T09:34:57.331Z,18.17
2019-05-16T09:37:59.635Z,18.38
2019-05-16T09:41:01.603Z,18.40
2019-05-16T09:44:03.843Z,18.53
2019-05-16T09:47:07.596Z,18.49
2019-05-16T09:50:10.616Z,18.47
2019-05-16T09:53:12.593Z,18.68
2019-05-16T09:56:16.793Z,18.61
2019-05-16T09:59:18.458Z,18.56
2019-05-16T10:02:20.399Z,18.45
2019-05-16T10:05:23.029Z,18.62
2019-05-16T10:08:26.773Z,18.75
2019-05-16T10:11:31.304Z,18.89
2019-05-16T10:14:33.054Z,18.87
2019-05-16T10:17:37.050Z,18.73
2019-05-16T10:20:38.837Z,18.48
2019-05-16T10:23:40.785Z,18.58
2019-05-16T10:26:42.705Z,18.44
2019-05-16T10:29:44.710Z,18.32
2019-05-16T10:32:47.888Z,18.37
2019-05-16T10:35:50.020Z,18.59
2019-05-16T10:38:51.931Z,18.64
2019-05-16T10:41:53.902Z,18.88
2019-05-16T10:44:57.650Z,19.00
2019-05-16T10:47:59.746Z,18.95
2019-05-16T10:51:01.647Z,18.89
2019-05-16T10:54:13.153Z,18.47
2019-05-16T10:57:08.273Z,18.44
2019-05-16T11:00:21.518Z,18.41
2019-05-16T11:03:16.981Z,18.37
2019-05-16T11:06:25.699Z,18.44
2019-05-16T11:09:22.513Z,18.89
2019-05-16T11:12:43.247Z,18.96
2019-05-16T11:15:28.490Z,18.67
2019-05-16T11:18:30.419Z,18.87
2019-05-16T11:21:32.418Z,19.06
2019-05-16T11:24:34.475Z,19.45
2019-05-16T11:27:37.498Z,19.64
2019-05-16T11:30:39.926Z,19.88
2019-05-16T11:33:41.928Z,20.06
2019-05-16T11:36:43.953Z,19.97
2019-05-16T11:39:46.675Z,20.15
2019-05-16T11:43:05.068Z,20.18
2019-05-16T11:45:52.642Z,20.23
2019-05-16T11:48:56.793Z,20.29
2019-05-16T11:51:58.506Z,20.03
2019-05-16T11:55:00.658Z,19.61
2019-05-16T11:58:02.591Z,19.83
2019-05-16T12:01:07.295Z,19.78
2019-05-16T12:04:08.467Z,19.83
2019-05-16T12:07:10.395Z,20.14
2019-05-16T12:10:12.948Z,20.34
2019-05-16T12:13:26.518Z,20.50
2019-05-16T12:16:19.066Z,20.13
2019-05-16T12:19:21.033Z,19.98
2019-05-16T12:22:23.023Z,20.04
2019-05-16T12:25:27.181Z,20.45
2019-05-16T12:28:28.738Z,20.66
2019-05-16T12:31:32.580Z,20.61
2019-05-16T12:34:36.759Z,20.22
2019-05-16T12:37:38.427Z,19.94
2019-05-16T12:40:40.441Z,19.97
2019-05-16T12:43:48.714Z,20.34
2019-05-16T12:46:47.427Z,20.41
2019-05-16T12:49:49.689Z,20.12
2019-05-16T12:52:52.921Z,19.95
2019-05-16T12:55:56.801Z,19.46
2019-05-16T12:58:58.735Z,19.28
2019-05-16T13:02:00.688Z,19.00
2019-05-16T13:05:04.700Z,19.10
2019-05-16T13:08:06.703Z,19.77
2019-05-16T13:11:08.648Z,19.84
2019-05-16T13:14:11.282Z,19.52
2019-05-16T13:17:16.527Z,19.38
2019-05-16T13:20:17.659Z,19.25
2019-05-16T13:23:19.670Z,19.42
2019-05-16T13:26:21.601Z,19.10
2019-05-16T13:29:23.668Z,19.17
2019-05-16T13:32:27.044Z,19.16
2019-05-16T13:35:29.335Z,19.02
2019-05-16T13:38:31.869Z,18.98
2019-05-16T13:41:34.583Z,19.01
2019-05-16T13:44:37.612Z,18.97
2019-05-16T13:47:40.028Z,18.79
2019-05-16T13:50:41.951Z,18.66
2019-05-16T13:53:44.059Z,18.43
2019-05-16T13:56:48.287Z,17.99
2019-05-16T13:59:49.961Z,17.74
2019-05-16T14:02:51.892Z,17.45
2019-05-16T14:05:54.014Z,17.36
2019-05-16T14:08:56.784Z,17.30
2019-05-16T14:11:59.235Z,17.23
2019-05-16T14:15:01.139Z,17.15
2019-05-16T14:18:07.392Z,17.13
2019-05-16T14:21:08.623Z,17.04
2019-05-16T14:24:10.705Z,16.88
2019-05-16T14:27:12.703Z,16.94
2019-05-16T14:30:17.871Z,17.03
2019-05-16T14:33:20.111Z,16.89
2019-05-16T14:36:22.793Z,16.94
2019-05-16T14:39:28.087Z,17.05
2019-05-16T14:42:28.673Z,17.01
2019-05-16T14:45:30.638Z,16.96
2019-05-16T14:48:33.307Z,17.06
2019-05-16T14:51:37.951Z,17.03
2019-05-16T14:54:39.268Z,17.04
2019-05-16T14:57:41.236Z,17.08
2019-05-16T15:00:43.268Z,17.18
2019-05-16T15:03:47.319Z,17.08
2019-05-16T15:06:49.431Z,17.23
2019-05-16T15:09:53.315Z,17.13
2019-05-16T15:12:56.989Z,17.12
2019-05-16T15:16:01.757Z,17.24
2019-05-16T15:19:04.708Z,17.26
2019-05-16T15:22:07.868Z,17.29
2019-05-16T15:25:10.449Z,17.27
2019-05-16T15:28:12.467Z,17.37
2019-05-16T15:31:16.608Z,17.85
2019-05-16T15:34:18.307Z,18.01
2019-05-16T15:37:20.557Z,18.06
2019-05-16T15:40:22.522Z,18.11
2019-05-16T15:43:27.733Z,18.07
2019-05-16T15:46:30.831Z,18.08
2019-05-16T15:49:32.821Z,17.91
2019-05-16T15:52:38.135Z,17.92
2019-05-16T15:55:41.318Z,17.97
2019-05-16T15:58:43.286Z,17.84
2019-05-16T16:01:47.410Z,18.02
2019-05-16T16:04:52.452Z,18.07
2019-05-16T16:07:55.462Z,18.12
2019-05-16T16:10:57.391Z,18.16
2019-05-16T16:13:59.348Z,18.29
2019-05-16T16:17:01.355Z,18.48
2019-05-16T16:20:09.922Z,18.66
2019-05-16T16:23:09.444Z,18.73
2019-05-16T16:26:11.501Z,18.76
2019-05-16T16:29:16.712Z,18.84
2019-05-16T16:32:18.056Z,18.93
2019-05-16T16:35:20.077Z,18.96
2019-05-16T16:38:22.113Z,18.88
2019-05-16T16:41:24.041Z,18.90
2019-05-16T16:44:27.456Z,18.75
2019-05-16T16:47:30.279Z,18.70
2019-05-16T16:50:32.236Z,18.78
2019-05-16T16:53:34.248Z,18.56
2019-05-16T16:56:38.021Z,18.05
2019-05-16T16:59:40.021Z,17.61
2019-05-16T17:02:42.168Z,17.35
2019-05-16T17:05:46.511Z,17.26
2019-05-16T17:08:48.762Z,17.14
2019-05-16T17:11:50.740Z,17.00
2019-05-16T17:14:52.743Z,16.91
2019-05-16T17:17:57.195Z,16.90
2019-05-16T17:20:59.034Z,16.80
2019-05-16T17:24:00.948Z,16.57
2019-05-16T17:27:02.922Z,16.51
2019-05-16T17:30:08.541Z,16.41
2019-05-16T17:33:11.805Z,16.16
2019-05-16T17:36:13.752Z,16.00
2019-05-16T17:39:18.321Z,15.83
2019-05-16T17:42:27.192Z,15.75
2019-05-16T17:45:29.399Z,15.53
2019-05-16T17:48:31.418Z,15.47
2019-05-16T17:51:36.758Z,15.41
2019-05-16T17:54:39.172Z,15.24
2019-05-16T17:57:42.814Z,15.19
2019-05-16T18:00:47.412Z,15.12
2019-05-16T18:03:50.057Z,15.07
2019-05-16T18:06:53.788Z,15.04
2019-05-16T18:09:57.452Z,14.97
2019-05-16T18:12:59.430Z,14.86
2019-05-16T18:16:01.401Z,14.77
2019-05-16T18:19:07.004Z,14.76
2019-05-16T18:22:12.718Z,14.75
2019-05-16T18:25:16.403Z,14.82
2019-05-16T18:28:18.608Z,14.81
2019-05-16T18:31:20.583Z,14.79
2019-05-16T18:34:24.655Z,14.77
2019-05-16T18:37:26.955Z,14.79
2019-05-16T18:40:28.902Z,14.77
2019-05-16T18:43:33.097Z,14.81
2019-05-16T18:46:36.301Z,14.81
2019-05-16T18:49:38.445Z,14.79
2019-05-16T18:52:40.781Z,14.78
2019-05-16T18:55:46.206Z,14.69
2019-05-16T18:58:48.835Z,14.55
2019-05-16T19:01:50.835Z,14.50
2019-05-16T19:04:57.785Z,14.48
2019-05-16T19:08:00.042Z,14.36
2019-05-16T19:11:02.023Z,14.28
2019-05-16T19:14:04.073Z,14.20
2019-05-16T19:17:21.181Z,14.13
2019-05-16T19:20:14.178Z,13.93
2019-05-16T19:23:17.484Z,13.85
2019-05-16T19:26:22.213Z,13.84
2019-05-16T19:29:26.307Z,13.78
2019-05-16T19:32:30.683Z,13.71
2019-05-16T19:35:33.899Z,13.68
2019-05-16T19:38:37.447Z,13.58
2019-05-16T19:41:40.004Z,13.46
2019-05-16T19:44:46.434Z,13.44
2019-05-16T19:47:49.151Z,13.51
2019-05-16T19:50:51.155Z,13.52
2019-05-16T19:53:56.565Z,13.52
2019-05-16T19:56:58.472Z,13.53
2019-05-16T20:00:09.385Z,13.42
2019-05-16T20:03:13.926Z,13.35
2019-05-16T20:06:18.230Z,13.31
2019-05-16T20:09:22.732Z,13.35
2019-05-16T20:12:28.045Z,13.37
2019-05-16T20:15:30.205Z,13.37
2019-05-16T20:18:32.187Z,13.22
2019-05-16T20:21:36.908Z,13.16
2019-05-16T20:24:39.300Z,13.10
2019-05-16T20:27:41.253Z,13.01
2019-05-16T20:30:47.563Z,13.03
2019-05-16T20:33:49.515Z,13.10
2019-05-16T20:36:51.430Z,13.07
2019-05-16T20:39:55.457Z,13.10
2019-05-16T20:42:59.514Z,13.12
2019-05-16T20:46:01.243Z,13.08
2019-05-16T20:49:04.475Z,13.03
2019-05-16T20:52:07.184Z,13.00
2019-05-16T20:55:09.877Z,12.98
2019-05-16T20:58:11.890Z,12.92
2019-05-16T21:01:13.831Z,12.85
2019-05-16T21:04:17.293Z,12.79
2019-05-16T21:07:19.292Z,12.71
2019-05-16T21:10:21.444Z,12.64
2019-05-16T21:13:23.531Z,12.60
2019-05-16T21:16:27.015Z,12.55
2019-05-16T21:19:29.195Z,12.51
2019-05-16T21:22:32.638Z,12.47
2019-05-16T21:25:36.972Z,12.42
2019-05-16T21:28:38.564Z,12.37
2019-05-16T21:31:40.598Z,12.33
2019-05-16T21:34:42.544Z,12.26
2019-05-16T21:37:46.644Z,12.23
2019-05-16T21:40:48.320Z,12.21
2019-05-16T21:43:50.276Z,12.19
2019-05-16T21:46:53.547Z,12.17
2019-05-16T21:49:56.904Z,12.13
2019-05-16T21:52:59.183Z,12.09
2019-05-16T21:56:01.199Z,12.10
2019-05-16T21:59:03.076Z,12.08
2019-05-16T22:02:05.186Z,12.06
2019-05-16T22:05:07.311Z,12.04
2019-05-16T22:08:11.883Z,11.99
2019-05-16T22:11:14.281Z,11.97
2019-05-16T22:14:19.868Z,11.95
2019-05-16T22:17:21.886Z,11.90
2019-05-16T22:20:23.907Z,11.82
2019-05-16T22:23:26.737Z,11.79
2019-05-16T22:26:28.918Z,11.73
2019-05-16T22:29:30.891Z,11.70
2019-05-16T22:32:36.262Z,11.70
2019-05-16T22:35:37.940Z,11.69
2019-05-16T22:38:39.948Z,11.67
2019-05-16T22:41:41.870Z,11.60
2019-05-16T22:44:46.618Z,11.59
2019-05-16T22:47:48.953Z,11.55
2019-05-16T22:50:50.940Z,11.56
2019-05-16T22:53:52.832Z,11.58
2019-05-16T22:56:57.184Z,11.54
2019-05-16T22:59:59.033Z,11.52
2019-05-16T23:03:00.943Z,11.52
2019-05-16T23:06:02.828Z,11.51
2019-05-16T23:09:06.945Z,11.45
2019-05-16T23:12:09.066Z,11.46
2019-05-16T23:15:11.623Z,11.44
2019-05-16T23:18:13.543Z,11.36
2019-05-16T23:21:17.040Z,11.29
2019-05-16T23:24:19.303Z,11.35
2019-05-16T23:27:21.318Z,11.36
2019-05-16T23:30:23.242Z,11.34
2019-05-16T23:33:26.897Z,11.30
2019-05-16T23:36:29.115Z,11.26
2019-05-16T23:39:31.029Z,11.24
2019-05-16T23:42:32.933Z,11.22
2019-05-16T23:45:37.286Z,11.18
2019-05-16T23:48:38.786Z,11.11
2019-05-16T23:51:40.748Z,11.05
2019-05-16T23:54:42.646Z,11.02
2019-05-16T23:57:46.587Z,10.99
